sensor_id;sensor_type;location;lat;lon;timestamp;P1;durP1;ratioP1;P2;durP2;ratioP2
15476;SDS011;7840;42.702;23.296;2023-04-24T00:01:11;6.18;;;5.47;;
15476;SDS011;7840;42.702;23.296;2023-04-24T00:03:40;8.30;;;5.95;;
15476;SDS011;7840;42.702;23.296;2023-04-24T00:06:07;8.00;;;6.13;;
15476;SDS011;7840;42.702;23.296;2023-04-24T00:08:36;8.85;;;6.53;;
15476;SDS011;7840;42.702;23.296;2023-04-24T00:11:03;7.60;;;6.28;;
15476;SDS011;7840;42.702;23.296;2023-04-24T00:13:31;8.20;;;6.57;;
15476;SDS011;7840;42.702;23.296;2023-04-24T00:15:58;8.75;;;6.82;;
15476;SDS011;7840;42.702;23.296;2023-04-24T00:18:25;6.70;;;6.00;;
15476;SDS011;7840;42.702;23.296;2023-04-24T00:20:52;9.53;;;6.03;;
15476;SDS011;7840;42.702;23.296;2023-04-24T00:23:23;7.13;;;5.33;;
15476;SDS011;7840;42.702;23.296;2023-04-24T00:25:51;7.77;;;5.70;;
15476;SDS011;7840;42.702;23.296;2023-04-24T00:28:19;8.80;;;6.00;;
15476;SDS011;7840;42.702;23.296;2023-04-24T00:30:49;7.37;;;5.03;;
15476;SDS011;7840;42.702;23.296;2023-04-24T00:33:16;6.80;;;5.10;;
15476;SDS011;7840;42.702;23.296;2023-04-24T00:35:43;6.37;;;5.00;;
15476;SDS011;7840;42.702;23.296;2023-04-24T00:38:10;5.93;;;5.33;;
15476;SDS011;7840;42.702;23.296;2023-04-24T00:40:38;6.83;;;5.20;;
15476;SDS011;7840;42.702;23.296;2023-04-24T00:43:06;6.18;;;5.57;;
15476;SDS011;7840;42.702;23.296;2023-04-24T00:45:34;6.60;;;4.53;;
15476;SDS011;7840;42.702;23.296;2023-04-24T00:48:01;7.73;;;4.70;;
15476;SDS011;7840;42.702;23.296;2023-04-24T00:50:29;9.57;;;5.03;;
15476;SDS011;7840;42.702;23.296;2023-04-24T00:52:56;7.93;;;4.53;;
15476;SDS011;7840;42.702;23.296;2023-04-24T00:55:24;6.15;;;5.20;;
15476;SDS011;7840;42.702;23.296;2023-04-24T00:57:51;8.80;;;4.90;;
15476;SDS011;7840;42.702;23.296;2023-04-24T01:00:20;7.13;;;4.37;;
15476;SDS011;7840;42.702;23.296;2023-04-24T01:02:48;5.27;;;4.67;;
15476;SDS011;7840;42.702;23.296;2023-04-24T01:05:16;5.57;;;4.70;;
15476;SDS011;7840;42.702;23.296;2023-04-24T01:07:44;7.90;;;4.80;;
15476;SDS011;7840;42.702;23.296;2023-04-24T01:10:14;6.23;;;4.20;;
15476;SDS011;7840;42.702;23.296;2023-04-24T01:12:42;7.13;;;4.87;;
15476;SDS011;7840;42.702;23.296;2023-04-24T01:15:10;8.23;;;5.60;;
15476;SDS011;7840;42.702;23.296;2023-04-24T01:17:39;9.40;;;4.93;;
15476;SDS011;7840;42.702;23.296;2023-04-24T01:20:06;5.60;;;4.67;;
15476;SDS011;7840;42.702;23.296;2023-04-24T01:22:35;7.40;;;5.00;;
15476;SDS011;7840;42.702;23.296;2023-04-24T01:25:03;8.30;;;4.60;;
15476;SDS011;7840;42.702;23.296;2023-04-24T01:27:31;6.37;;;5.10;;
15476;SDS011;7840;42.702;23.296;2023-04-24T01:29:58;7.23;;;5.07;;
15476;SDS011;7840;42.702;23.296;2023-04-24T01:32:25;7.97;;;4.83;;
15476;SDS011;7840;42.702;23.296;2023-04-24T01:34:53;6.07;;;4.50;;
15476;SDS011;7840;42.702;23.296;2023-04-24T01:37:21;6.03;;;5.37;;
15476;SDS011;7840;42.702;23.296;2023-04-24T01:39:50;10.90;;;4.93;;
15476;SDS011;7840;42.702;23.296;2023-04-24T01:42:17;7.97;;;4.90;;
15476;SDS011;7840;42.702;23.296;2023-04-24T01:44:44;8.90;;;5.13;;
15476;SDS011;7840;42.702;23.296;2023-04-24T01:47:12;9.50;;;5.87;;
15476;SDS011;7840;42.702;23.296;2023-04-24T01:49:39;6.30;;;5.00;;
15476;SDS011;7840;42.702;23.296;2023-04-24T01:52:06;9.40;;;5.63;;
15476;SDS011;7840;42.702;23.296;2023-04-24T01:54:34;9.10;;;5.37;;
15476;SDS011;7840;42.702;23.296;2023-04-24T01:57:03;6.33;;;5.07;;
15476;SDS011;7840;42.702;23.296;2023-04-24T01:59:30;8.07;;;5.50;;
15476;SDS011;7840;42.702;23.296;2023-04-24T02:01:58;5.90;;;5.30;;
15476;SDS011;7840;42.702;23.296;2023-04-24T02:04:25;8.17;;;5.27;;
15476;SDS011;7840;42.702;23.296;2023-04-24T02:06:53;7.20;;;5.53;;
15476;SDS011;7840;42.702;23.296;2023-04-24T02:09:21;7.10;;;5.17;;
15476;SDS011;7840;42.702;23.296;2023-04-24T02:11:54;6.63;;;5.80;;
15476;SDS011;7840;42.702;23.296;2023-04-24T02:14:24;8.10;;;5.77;;
15476;SDS011;7840;42.702;23.296;2023-04-24T02:16:51;11.33;;;6.40;;
15476;SDS011;7840;42.702;23.296;2023-04-24T02:19:19;8.30;;;5.93;;
15476;SDS011;7840;42.702;23.296;2023-04-24T02:21:46;8.23;;;5.53;;
15476;SDS011;7840;42.702;23.296;2023-04-24T02:24:14;9.20;;;6.37;;
15476;SDS011;7840;42.702;23.296;2023-04-24T02:26:42;6.33;;;5.73;;
15476;SDS011;7840;42.702;23.296;2023-04-24T02:29:09;9.67;;;6.40;;
15476;SDS011;7840;42.702;23.296;2023-04-24T02:31:38;9.37;;;5.87;;
15476;SDS011;7840;42.702;23.296;2023-04-24T02:34:05;9.47;;;6.03;;
15476;SDS011;7840;42.702;23.296;2023-04-24T02:36:33;14.20;;;6.50;;
15476;SDS011;7840;42.702;23.296;2023-04-24T02:39:00;10.10;;;5.80;;
15476;SDS011;7840;42.702;23.296;2023-04-24T02:41:29;6.90;;;6.07;;
15476;SDS011;7840;42.702;23.296;2023-04-24T02:43:57;9.50;;;5.73;;
15476;SDS011;7840;42.702;23.296;2023-04-24T02:46:25;11.87;;;6.20;;
15476;SDS011;7840;42.702;23.296;2023-04-24T02:48:54;8.67;;;6.03;;
15476;SDS011;7840;42.702;23.296;2023-04-24T02:51:21;10.50;;;6.53;;
15476;SDS011;7840;42.702;23.296;2023-04-24T02:53:48;9.20;;;6.50;;
15476;SDS011;7840;42.702;23.296;2023-04-24T02:56:16;8.97;;;7.00;;
15476;SDS011;7840;42.702;23.296;2023-04-24T02:58:43;10.20;;;6.93;;
15476;SDS011;7840;42.702;23.296;2023-04-24T03:01:11;10.07;;;8.10;;
15476;SDS011;7840;42.702;23.296;2023-04-24T03:03:38;15.00;;;8.80;;
15476;SDS011;7840;42.702;23.296;2023-04-24T03:06:07;12.60;;;8.50;;
15476;SDS011;7840;42.702;23.296;2023-04-24T03:08:34;11.07;;;7.93;;
15476;SDS011;7840;42.702;23.296;2023-04-24T03:11:14;11.63;;;9.13;;
15476;SDS011;7840;42.702;23.296;2023-04-24T03:14:15;10.40;;;8.23;;
15476;SDS011;7840;42.702;23.296;2023-04-24T03:16:43;11.83;;;8.27;;
15476;SDS011;7840;42.702;23.296;2023-04-24T03:19:21;11.47;;;9.10;;
15476;SDS011;7840;42.702;23.296;2023-04-24T03:21:53;11.03;;;8.40;;
15476;SDS011;7840;42.702;23.296;2023-04-24T03:24:21;10.00;;;8.93;;
15476;SDS011;7840;42.702;23.296;2023-04-24T03:26:48;11.13;;;8.40;;
15476;SDS011;7840;42.702;23.296;2023-04-24T03:29:15;12.30;;;9.50;;
15476;SDS011;7840;42.702;23.296;2023-04-24T03:31:43;12.73;;;9.20;;
15476;SDS011;7840;42.702;23.296;2023-04-24T03:34:10;13.07;;;9.83;;
15476;SDS011;7840;42.702;23.296;2023-04-24T03:36:38;12.23;;;9.47;;
15476;SDS011;7840;42.702;23.296;2023-04-24T03:39:07;16.43;;;9.63;;
15476;SDS011;7840;42.702;23.296;2023-04-24T03:41:35;17.47;;;9.93;;
15476;SDS011;7840;42.702;23.296;2023-04-24T03:44:02;11.23;;;9.67;;
15476;SDS011;7840;42.702;23.296;2023-04-24T03:46:30;12.13;;;9.40;;
15476;SDS011;7840;42.702;23.296;2023-04-24T03:48:57;12.43;;;10.17;;
15476;SDS011;7840;42.702;23.296;2023-04-24T03:51:25;12.83;;;9.90;;
15476;SDS011;7840;42.702;23.296;2023-04-24T03:53:53;14.60;;;9.20;;
15476;SDS011;7840;42.702;23.296;2023-04-24T03:56:24;17.03;;;9.43;;
15476;SDS011;7840;42.702;23.296;2023-04-24T03:58:52;13.60;;;9.83;;
15476;SDS011;7840;42.702;23.296;2023-04-24T04:01:22;14.70;;;10.47;;
15476;SDS011;7840;42.702;23.296;2023-04-24T04:03:49;15.50;;;9.87;;
15476;SDS011;7840;42.702;23.296;2023-04-24T04:06:17;17.40;;;10.67;;
15476;SDS011;7840;42.702;23.296;2023-04-24T04:08:44;11.13;;;10.03;;
15476;SDS011;7840;42.702;23.296;2023-04-24T04:11:15;16.87;;;10.37;;
15476;SDS011;7840;42.702;23.296;2023-04-24T04:13:43;32.60;;;12.53;;
15476;SDS011;7840;42.702;23.296;2023-04-24T04:16:12;22.60;;;10.63;;
15476;SDS011;7840;42.702;23.296;2023-04-24T04:18:41;17.13;;;10.07;;
15476;SDS011;7840;42.702;23.296;2023-04-24T04:21:09;13.00;;;9.90;;
15476;SDS011;7840;42.702;23.296;2023-04-24T04:23:36;17.10;;;9.93;;
15476;SDS011;7840;42.702;23.296;2023-04-24T04:26:04;18.47;;;10.40;;
15476;SDS011;7840;42.702;23.296;2023-04-24T04:28:33;29.37;;;10.30;;
15476;SDS011;7840;42.702;23.296;2023-04-24T04:31:01;12.10;;;9.87;;
15476;SDS011;7840;42.702;23.296;2023-04-24T04:33:29;18.27;;;10.00;;
15476;SDS011;7840;42.702;23.296;2023-04-24T04:35:56;17.50;;;8.97;;
15476;SDS011;7840;42.702;23.296;2023-04-24T04:38:23;9.80;;;7.07;;
15476;SDS011;7840;42.702;23.296;2023-04-24T04:40:51;8.20;;;5.80;;
15476;SDS011;7840;42.702;23.296;2023-04-24T04:43:19;8.10;;;5.53;;
15476;SDS011;7840;42.702;23.296;2023-04-24T04:45:46;11.17;;;5.33;;
15476;SDS011;7840;42.702;23.296;2023-04-24T04:48:16;6.90;;;4.60;;
15476;SDS011;7840;42.702;23.296;2023-04-24T04:50:43;12.30;;;5.03;;
15476;SDS011;7840;42.702;23.296;2023-04-24T04:53:11;5.80;;;5.20;;
15476;SDS011;7840;42.702;23.296;2023-04-24T04:55:38;5.73;;;5.00;;
15476;SDS011;7840;42.702;23.296;2023-04-24T04:58:06;6.77;;;5.40;;
15476;SDS011;7840;42.702;23.296;2023-04-24T05:00:33;8.37;;;5.43;;
15476;SDS011;7840;42.702;23.296;2023-04-24T05:03:02;8.97;;;5.23;;
15476;SDS011;7840;42.702;23.296;2023-04-24T05:05:31;7.43;;;5.27;;
15476;SDS011;7840;42.702;23.296;2023-04-24T05:07:59;10.03;;;6.03;;
15476;SDS011;7840;42.702;23.296;2023-04-24T05:10:26;15.73;;;7.40;;
15476;SDS011;7840;42.702;23.296;2023-04-24T05:12:53;10.60;;;6.80;;
15476;SDS011;7840;42.702;23.296;2023-04-24T05:15:20;6.93;;;5.33;;
15476;SDS011;7840;42.702;23.296;2023-04-24T05:17:48;9.07;;;5.57;;
15476;SDS011;7840;42.702;23.296;2023-04-24T05:20:16;11.23;;;5.83;;
15476;SDS011;7840;42.702;23.296;2023-04-24T05:22:44;8.10;;;5.50;;
15476;SDS011;7840;42.702;23.296;2023-04-24T05:25:12;15.73;;;6.43;;
15476;SDS011;7840;42.702;23.296;2023-04-24T05:27:39;8.50;;;6.45;;
15476;SDS011;7840;42.702;23.296;2023-04-24T05:30:07;9.03;;;7.00;;
15476;SDS011;7840;42.702;23.296;2023-04-24T05:32:35;11.18;;;7.13;;
15476;SDS011;7840;42.702;23.296;2023-04-24T05:35:03;9.40;;;6.97;;
15476;SDS011;7840;42.702;23.296;2023-04-24T05:37:30;8.18;;;6.30;;
15476;SDS011;7840;42.702;23.296;2023-04-24T05:39:59;11.93;;;6.85;;
15476;SDS011;7840;42.702;23.296;2023-04-24T05:42:26;8.30;;;6.43;;
15476;SDS011;7840;42.702;23.296;2023-04-24T05:44:54;10.20;;;6.97;;
15476;SDS011;7840;42.702;23.296;2023-04-24T05:47:21;10.57;;;6.87;;
15476;SDS011;7840;42.702;23.296;2023-04-24T05:49:49;14.32;;;6.93;;
15476;SDS011;7840;42.702;23.296;2023-04-24T05:52:16;11.32;;;6.75;;
15476;SDS011;7840;42.702;23.296;2023-04-24T05:54:44;14.55;;;6.85;;
15476;SDS011;7840;42.702;23.296;2023-04-24T05:57:15;10.05;;;6.72;;
15476;SDS011;7840;42.702;23.296;2023-04-24T05:59:42;12.60;;;6.45;;
15476;SDS011;7840;42.702;23.296;2023-04-24T06:02:10;10.30;;;6.45;;
15476;SDS011;7840;42.702;23.296;2023-04-24T06:04:37;10.93;;;6.88;;
15476;SDS011;7840;42.702;23.296;2023-04-24T06:07:05;13.70;;;6.78;;
15476;SDS011;7840;42.702;23.296;2023-04-24T06:09:32;11.30;;;7.22;;
15476;SDS011;7840;42.702;23.296;2023-04-24T06:12:00;9.55;;;7.03;;
15476;SDS011;7840;42.702;23.296;2023-04-24T06:14:29;13.02;;;7.07;;
15476;SDS011;7840;42.702;23.296;2023-04-24T06:16:56;10.10;;;6.68;;
15476;SDS011;7840;42.702;23.296;2023-04-24T06:19:23;9.32;;;6.57;;
15476;SDS011;7840;42.702;23.296;2023-04-24T06:21:51;10.93;;;7.30;;
15476;SDS011;7840;42.702;23.296;2023-04-24T06:24:18;11.95;;;6.20;;
15476;SDS011;7840;42.702;23.296;2023-04-24T06:26:45;9.93;;;6.75;;
15476;SDS011;7840;42.702;23.296;2023-04-24T06:29:13;10.88;;;6.50;;
15476;SDS011;7840;42.702;23.296;2023-04-24T06:31:41;10.07;;;6.72;;
15476;SDS011;7840;42.702;23.296;2023-04-24T06:34:09;11.45;;;6.10;;
15476;SDS011;7840;42.702;23.296;2023-04-24T06:36:36;6.55;;;5.95;;
15476;SDS011;7840;42.702;23.296;2023-04-24T06:39:03;14.00;;;6.95;;
15476;SDS011;7840;42.702;23.296;2023-04-24T06:41:31;14.43;;;6.40;;
15476;SDS011;7840;42.702;23.296;2023-04-24T06:43:58;8.75;;;6.50;;
15476;SDS011;7840;42.702;23.296;2023-04-24T06:46:25;11.80;;;6.35;;
15476;SDS011;7840;42.702;23.296;2023-04-24T06:48:54;7.60;;;6.22;;
15476;SDS011;7840;42.702;23.296;2023-04-24T06:51:22;8.85;;;6.18;;
15476;SDS011;7840;42.702;23.296;2023-04-24T06:53:50;8.45;;;6.45;;
15476;SDS011;7840;42.702;23.296;2023-04-24T06:56:18;11.68;;;6.95;;
15476;SDS011;7840;42.702;23.296;2023-04-24T06:58:46;11.07;;;6.53;;
15476;SDS011;7840;42.702;23.296;2023-04-24T07:01:13;10.45;;;6.97;;
15476;SDS011;7840;42.702;23.296;2023-04-24T07:03:41;8.30;;;6.78;;
15476;SDS011;7840;42.702;23.296;2023-04-24T07:06:09;13.57;;;6.85;;
15476;SDS011;7840;42.702;23.296;2023-04-24T07:08:37;11.05;;;7.18;;
15476;SDS011;7840;42.702;23.296;2023-04-24T07:11:06;21.05;;;7.78;;
15476;SDS011;7840;42.702;23.296;2023-04-24T07:13:34;8.55;;;7.28;;
15476;SDS011;7840;42.702;23.296;2023-04-24T07:16:01;13.32;;;7.93;;
15476;SDS011;7840;42.702;23.296;2023-04-24T07:18:28;10.45;;;7.38;;
15476;SDS011;7840;42.702;23.296;2023-04-24T07:20:56;12.15;;;7.30;;
15476;SDS011;7840;42.702;23.296;2023-04-24T07:23:24;13.90;;;8.07;;
15476;SDS011;7840;42.702;23.296;2023-04-24T07:25:52;11.13;;;7.60;;
15476;SDS011;7840;42.702;23.296;2023-04-24T07:28:19;21.25;;;7.80;;
15476;SDS011;7840;42.702;23.296;2023-04-24T07:30:47;11.68;;;8.30;;
15476;SDS011;7840;42.702;23.296;2023-04-24T07:33:14;14.00;;;8.45;;
15476;SDS011;7840;42.702;23.296;2023-04-24T07:35:41;12.07;;;7.80;;
15476;SDS011;7840;42.702;23.296;2023-04-24T07:38:09;10.75;;;7.93;;
15476;SDS011;7840;42.702;23.296;2023-04-24T07:40:37;13.25;;;6.95;;
15476;SDS011;7840;42.702;23.296;2023-04-24T07:43:05;11.13;;;7.10;;
15476;SDS011;7840;42.702;23.296;2023-04-24T07:45:32;10.65;;;7.30;;
15476;SDS011;7840;42.702;23.296;2023-04-24T07:48:02;11.63;;;7.22;;
15476;SDS011;7840;42.702;23.296;2023-04-24T07:50:29;13.07;;;6.35;;
15476;SDS011;7840;42.702;23.296;2023-04-24T07:52:56;6.35;;;5.65;;
15476;SDS011;7840;42.702;23.296;2023-04-24T07:55:24;12.45;;;6.50;;
15476;SDS011;7840;42.702;23.296;2023-04-24T07:57:52;10.45;;;5.57;;
15476;SDS011;7840;42.702;23.296;2023-04-24T08:00:20;10.40;;;5.72;;
15476;SDS011;7840;42.702;23.296;2023-04-24T08:02:47;6.30;;;5.38;;
15476;SDS011;7840;42.702;23.296;2023-04-24T08:05:15;8.85;;;6.20;;
15476;SDS011;7840;42.702;23.296;2023-04-24T08:07:42;7.78;;;6.30;;
15476;SDS011;7840;42.702;23.296;2023-04-24T08:10:11;11.02;;;6.00;;
15476;SDS011;7840;42.702;23.296;2023-04-24T08:12:38;6.97;;;5.65;;
15476;SDS011;7840;42.702;23.296;2023-04-24T08:15:07;7.03;;;5.72;;
15476;SDS011;7840;42.702;23.296;2023-04-24T08:17:35;7.82;;;6.00;;
15476;SDS011;7840;42.702;23.296;2023-04-24T08:20:02;9.60;;;6.13;;
15476;SDS011;7840;42.702;23.296;2023-04-24T08:22:30;10.88;;;6.25;;
15476;SDS011;7840;42.702;23.296;2023-04-24T08:24:59;8.73;;;6.35;;
15476;SDS011;7840;42.702;23.296;2023-04-24T08:27:27;7.18;;;5.50;;
15476;SDS011;7840;42.702;23.296;2023-04-24T08:29:54;7.18;;;6.47;;
15476;SDS011;7840;42.702;23.296;2023-04-24T08:32:23;8.50;;;6.18;;
15476;SDS011;7840;42.702;23.296;2023-04-24T08:34:52;13.77;;;6.63;;
15476;SDS011;7840;42.702;23.296;2023-04-24T08:37:21;7.38;;;6.10;;
15476;SDS011;7840;42.702;23.296;2023-04-24T08:39:48;6.85;;;5.85;;
15476;SDS011;7840;42.702;23.296;2023-04-24T08:42:16;8.95;;;6.38;;
15476;SDS011;7840;42.702;23.296;2023-04-24T08:44:44;6.60;;;5.97;;
15476;SDS011;7840;42.702;23.296;2023-04-24T08:47:11;10.82;;;6.97;;
15476;SDS011;7840;42.702;23.296;2023-04-24T08:49:40;8.23;;;6.50;;
15476;SDS011;7840;42.702;23.296;2023-04-24T08:52:08;7.43;;;6.55;;
15476;SDS011;7840;42.702;23.296;2023-04-24T08:54:38;9.35;;;6.43;;
15476;SDS011;7840;42.702;23.296;2023-04-24T08:57:08;8.10;;;6.68;;
15476;SDS011;7840;42.702;23.296;2023-04-24T08:59:36;8.10;;;6.50;;
15476;SDS011;7840;42.702;23.296;2023-04-24T09:02:05;7.22;;;6.13;;
15476;SDS011;7840;42.702;23.296;2023-04-24T09:04:33;8.02;;;6.30;;
15476;SDS011;7840;42.702;23.296;2023-04-24T09:07:02;7.40;;;6.30;;
15476;SDS011;7840;42.702;23.296;2023-04-24T09:09:30;12.35;;;6.13;;
15476;SDS011;7840;42.702;23.296;2023-04-24T09:11:59;6.93;;;5.93;;
15476;SDS011;7840;42.702;23.296;2023-04-24T09:14:27;7.05;;;6.03;;
15476;SDS011;7840;42.702;23.296;2023-04-24T09:16:57;10.10;;;5.45;;
15476;SDS011;7840;42.702;23.296;2023-04-24T09:19:24;13.32;;;6.72;;
15476;SDS011;7840;42.702;23.296;2023-04-24T09:21:51;10.30;;;6.32;;
15476;SDS011;7840;42.702;23.296;2023-04-24T09:24:21;9.55;;;5.90;;
15476;SDS011;7840;42.702;23.296;2023-04-24T09:26:49;9.05;;;5.75;;
15476;SDS011;7840;42.702;23.296;2023-04-24T09:29:23;9.73;;;5.30;;
15476;SDS011;7840;42.702;23.296;2023-04-24T09:31:50;13.15;;;5.50;;
15476;SDS011;7840;42.702;23.296;2023-04-24T09:34:20;7.57;;;5.95;;
15476;SDS011;7840;42.702;23.296;2023-04-24T09:36:49;10.00;;;5.30;;
15476;SDS011;7840;42.702;23.296;2023-04-24T09:39:17;12.63;;;5.40;;
15476;SDS011;7840;42.702;23.296;2023-04-24T09:41:47;7.63;;;5.22;;
15476;SDS011;7840;42.702;23.296;2023-04-24T09:44:16;6.68;;;5.55;;
15476;SDS011;7840;42.702;23.296;2023-04-24T09:46:45;6.88;;;5.25;;
15476;SDS011;7840;42.702;23.296;2023-04-24T09:49:14;7.28;;;5.50;;
15476;SDS011;7840;42.702;23.296;2023-04-24T09:51:42;8.05;;;5.50;;
15476;SDS011;7840;42.702;23.296;2023-04-24T09:54:19;7.93;;;5.38;;
15476;SDS011;7840;42.702;23.296;2023-04-24T09:56:49;8.93;;;4.55;;
15476;SDS011;7840;42.702;23.296;2023-04-24T09:59:16;9.77;;;5.40;;
15476;SDS011;7840;42.702;23.296;2023-04-24T10:01:44;7.43;;;4.72;;
15476;SDS011;7840;42.702;23.296;2023-04-24T10:04:17;6.03;;;5.40;;
15476;SDS011;7840;42.702;23.296;2023-04-24T10:06:44;8.80;;;4.75;;
15476;SDS011;7840;42.702;23.296;2023-04-24T10:09:12;6.43;;;5.20;;
15476;SDS011;7840;42.702;23.296;2023-04-24T10:11:41;11.30;;;5.65;;
15476;SDS011;7840;42.702;23.296;2023-04-24T10:14:12;8.60;;;4.72;;
15476;SDS011;7840;42.702;23.296;2023-04-24T10:16:39;4.50;;;4.10;;
15476;SDS011;7840;42.702;23.296;2023-04-24T10:19:07;5.20;;;4.55;;
15476;SDS011;7840;42.702;23.296;2023-04-24T10:21:34;12.95;;;4.50;;
15476;SDS011;7840;42.702;23.296;2023-04-24T10:24:03;8.63;;;4.78;;
15476;SDS011;7840;42.702;23.296;2023-04-24T10:26:32;5.05;;;4.55;;
15476;SDS011;7840;42.702;23.296;2023-04-24T10:29:00;5.40;;;4.88;;
15476;SDS011;7840;42.702;23.296;2023-04-24T10:31:31;8.25;;;4.63;;
15476;SDS011;7840;42.702;23.296;2023-04-24T10:33:59;10.57;;;5.03;;
15476;SDS011;7840;42.702;23.296;2023-04-24T10:36:27;10.60;;;5.05;;
15476;SDS011;7840;42.702;23.296;2023-04-24T10:38:54;7.28;;;4.43;;
15476;SDS011;7840;42.702;23.296;2023-04-24T10:41:23;6.10;;;4.40;;
15476;SDS011;7840;42.702;23.296;2023-04-24T10:44:03;5.97;;;4.75;;
15476;SDS011;7840;42.702;23.296;2023-04-24T10:46:33;5.18;;;4.68;;
15476;SDS011;7840;42.702;23.296;2023-04-24T10:49:03;11.93;;;4.47;;
15476;SDS011;7840;42.702;23.296;2023-04-24T10:54:21;8.75;;;4.45;;
15476;SDS011;7840;42.702;23.296;2023-04-24T10:56:49;9.25;;;5.10;;
15476;SDS011;7840;42.702;23.296;2023-04-24T10:59:23;5.15;;;4.43;;
15476;SDS011;7840;42.702;23.296;2023-04-24T11:01:56;6.40;;;4.50;;
15476;SDS011;7840;42.702;23.296;2023-04-24T11:04:28;6.20;;;4.22;;
15476;SDS011;7840;42.702;23.296;2023-04-24T11:06:56;9.65;;;4.38;;
15476;SDS011;7840;42.702;23.296;2023-04-24T11:09:26;7.53;;;4.35;;
15476;SDS011;7840;42.702;23.296;2023-04-24T11:12:03;8.35;;;4.68;;
15476;SDS011;7840;42.702;23.296;2023-04-24T11:14:44;7.03;;;4.32;;
15476;SDS011;7840;42.702;23.296;2023-04-24T11:17:33;11.98;;;5.00;;
15476;SDS011;7840;42.702;23.296;2023-04-24T11:20:02;7.05;;;4.97;;
15476;SDS011;7840;42.702;23.296;2023-04-24T11:22:32;6.47;;;4.10;;
15476;SDS011;7840;42.702;23.296;2023-04-24T11:25:01;8.65;;;4.47;;
15476;SDS011;7840;42.702;23.296;2023-04-24T11:27:29;7.78;;;4.05;;
15476;SDS011;7840;42.702;23.296;2023-04-24T11:30:00;5.40;;;4.90;;
15476;SDS011;7840;42.702;23.296;2023-04-24T11:32:28;7.00;;;4.95;;
15476;SDS011;7840;42.702;23.296;2023-04-24T11:34:58;5.35;;;4.85;;
15476;SDS011;7840;42.702;23.296;2023-04-24T11:37:27;4.50;;;4.20;;
15476;SDS011;7840;42.702;23.296;2023-04-24T11:39:56;4.82;;;3.92;;
15476;SDS011;7840;42.702;23.296;2023-04-24T11:42:24;5.13;;;4.63;;
15476;SDS011;7840;42.702;23.296;2023-04-24T11:44:52;4.13;;;3.75;;
15476;SDS011;7840;42.702;23.296;2023-04-24T11:47:27;4.18;;;3.63;;
15476;SDS011;7840;42.702;23.296;2023-04-24T11:49:54;3.88;;;3.47;;
15476;SDS011;7840;42.702;23.296;2023-04-24T11:52:23;3.83;;;3.45;;
15476;SDS011;7840;42.702;23.296;2023-04-24T11:54:50;3.40;;;3.10;;
15476;SDS011;7840;42.702;23.296;2023-04-24T11:57:19;4.45;;;3.47;;
15476;SDS011;7840;42.702;23.296;2023-04-24T11:59:47;3.90;;;3.60;;
15476;SDS011;7840;42.702;23.296;2023-04-24T12:02:21;4.50;;;3.70;;
15476;SDS011;7840;42.702;23.296;2023-04-24T12:04:49;6.03;;;3.70;;
15476;SDS011;7840;42.702;23.296;2023-04-24T12:07:16;3.65;;;3.30;;
15476;SDS011;7840;42.702;23.296;2023-04-24T12:09:45;4.25;;;3.22;;
15476;SDS011;7840;42.702;23.296;2023-04-24T12:12:13;4.30;;;3.40;;
15476;SDS011;7840;42.702;23.296;2023-04-24T12:14:42;8.00;;;4.03;;
15476;SDS011;7840;42.702;23.296;2023-04-24T12:17:09;4.00;;;3.60;;
15476;SDS011;7840;42.702;23.296;2023-04-24T12:19:36;4.93;;;3.60;;
15476;SDS011;7840;42.702;23.296;2023-04-24T12:22:04;5.53;;;3.40;;
15476;SDS011;7840;42.702;23.296;2023-04-24T12:24:32;4.30;;;3.08;;
15476;SDS011;7840;42.702;23.296;2023-04-24T12:27:01;5.53;;;3.70;;
15476;SDS011;7840;42.702;23.296;2023-04-24T12:29:28;4.65;;;3.40;;
15476;SDS011;7840;42.702;23.296;2023-04-24T12:31:56;6.18;;;3.35;;
15476;SDS011;7840;42.702;23.296;2023-04-24T12:34:25;6.13;;;3.38;;
15476;SDS011;7840;42.702;23.296;2023-04-24T12:36:53;4.88;;;3.72;;
15476;SDS011;7840;42.702;23.296;2023-04-24T12:39:20;6.82;;;3.20;;
15476;SDS011;7840;42.702;23.296;2023-04-24T12:41:56;9.30;;;3.90;;
15476;SDS011;7840;42.702;23.296;2023-04-24T12:44:32;4.03;;;3.33;;
15476;SDS011;7840;42.702;23.296;2023-04-24T12:46:59;3.47;;;3.10;;
15476;SDS011;7840;42.702;23.296;2023-04-24T12:49:27;3.25;;;3.05;;
15476;SDS011;7840;42.702;23.296;2023-04-24T12:51:55;5.15;;;3.42;;
15476;SDS011;7840;42.702;23.296;2023-04-24T12:54:22;5.28;;;3.60;;
15476;SDS011;7840;42.702;23.296;2023-04-24T12:56:50;7.40;;;3.95;;
15476;SDS011;7840;42.702;23.296;2023-04-24T12:59:17;4.15;;;3.42;;
15476;SDS011;7840;42.702;23.296;2023-04-24T13:01:46;3.60;;;3.30;;
15476;SDS011;7840;42.702;23.296;2023-04-24T13:04:14;4.05;;;3.20;;
15476;SDS011;7840;42.702;23.296;2023-04-24T13:06:42;4.65;;;3.55;;
15476;SDS011;7840;42.702;23.296;2023-04-24T13:09:09;7.60;;;3.70;;
15476;SDS011;7840;42.702;23.296;2023-04-24T13:11:37;7.55;;;3.20;;
15476;SDS011;7840;42.702;23.296;2023-04-24T13:14:04;5.28;;;3.60;;
15476;SDS011;7840;42.702;23.296;2023-04-24T13:16:35;6.07;;;3.85;;
15476;SDS011;7840;42.702;23.296;2023-04-24T13:19:04;5.18;;;3.60;;
15476;SDS011;7840;42.702;23.296;2023-04-24T13:21:31;3.95;;;3.10;;
15476;SDS011;7840;42.702;23.296;2023-04-24T13:23:58;4.03;;;3.40;;
15476;SDS011;7840;42.702;23.296;2023-04-24T13:26:26;5.38;;;3.33;;
15476;SDS011;7840;42.702;23.296;2023-04-24T13:28:53;4.97;;;3.38;;
15476;SDS011;7840;42.702;23.296;2023-04-24T13:31:21;4.53;;;3.80;;
15476;SDS011;7840;42.702;23.296;2023-04-24T13:33:48;6.05;;;3.40;;
15476;SDS011;7840;42.702;23.296;2023-04-24T13:36:17;6.32;;;3.20;;
15476;SDS011;7840;42.702;23.296;2023-04-24T13:38:44;4.32;;;3.58;;
15476;SDS011;7840;42.702;23.296;2023-04-24T13:41:12;5.45;;;3.42;;
15476;SDS011;7840;42.702;23.296;2023-04-24T13:43:39;6.03;;;3.15;;
15476;SDS011;7840;42.702;23.296;2023-04-24T13:46:08;6.63;;;3.10;;
15476;SDS011;7840;42.702;23.296;2023-04-24T13:48:35;6.65;;;3.55;;
15476;SDS011;7840;42.702;23.296;2023-04-24T13:51:02;6.38;;;3.22;;
15476;SDS011;7840;42.702;23.296;2023-04-24T13:53:31;3.83;;;3.17;;
15476;SDS011;7840;42.702;23.296;2023-04-24T13:56:01;5.40;;;3.67;;
15476;SDS011;7840;42.702;23.296;2023-04-24T13:58:28;5.07;;;3.30;;
15476;SDS011;7840;42.702;23.296;2023-04-24T14:00:56;4.30;;;2.97;;
15476;SDS011;7840;42.702;23.296;2023-04-24T14:03:23;5.28;;;3.35;;
15476;SDS011;7840;42.702;23.296;2023-04-24T14:05:50;5.63;;;2.90;;
15476;SDS011;7840;42.702;23.296;2023-04-24T14:08:18;3.40;;;3.15;;
15476;SDS011;7840;42.702;23.296;2023-04-24T14:10:47;4.47;;;3.28;;
15476;SDS011;7840;42.702;23.296;2023-04-24T14:13:14;4.03;;;2.75;;
15476;SDS011;7840;42.702;23.296;2023-04-24T14:15:41;6.30;;;3.67;;
15476;SDS011;7840;42.702;23.296;2023-04-24T14:18:09;5.75;;;3.05;;
15476;SDS011;7840;42.702;23.296;2023-04-24T14:20:36;6.63;;;3.42;;
15476;SDS011;7840;42.702;23.296;2023-04-24T14:23:04;4.90;;;3.72;;
15476;SDS011;7840;42.702;23.296;2023-04-24T14:25:31;7.20;;;3.85;;
15476;SDS011;7840;42.702;23.296;2023-04-24T14:28:00;5.95;;;3.88;;
15476;SDS011;7840;42.702;23.296;2023-04-24T14:30:27;5.85;;;3.72;;
15476;SDS011;7840;42.702;23.296;2023-04-24T14:32:55;10.38;;;4.10;;
15476;SDS011;7840;42.702;23.296;2023-04-24T14:35:22;6.65;;;3.80;;
15476;SDS011;7840;42.702;23.296;2023-04-24T14:37:49;5.38;;;3.30;;
15476;SDS011;7840;42.702;23.296;2023-04-24T14:40:17;3.83;;;3.45;;
15476;SDS011;7840;42.702;23.296;2023-04-24T14:42:44;5.68;;;3.78;;
15476;SDS011;7840;42.702;23.296;2023-04-24T14:45:13;5.07;;;3.53;;
15476;SDS011;7840;42.702;23.296;2023-04-24T14:47:44;4.82;;;3.72;;
15476;SDS011;7840;42.702;23.296;2023-04-24T14:50:11;7.60;;;3.95;;
15476;SDS011;7840;42.702;23.296;2023-04-24T14:52:42;4.82;;;3.70;;